Portola, California
Current Conditions -  °F | °C
As of 2:35 PM on Sunday 25 Jan 2015 (Local Time) from KRTS Reporting Station
Clear Clear  
Wind Chill: 57°   Ceiling: Unl
Heat Index: 57°   Visibility: 10mi
Dew Point: 27°   Wind: 14mph
Humidity: 31%   Direction: 80°E
Pressure: 30.29"   Gusts: 20mph
Location:  39.81°N, 120.47°W
Report Text: KRTS 252235Z AUTO 08012G17KT 10SM CLR 14/M03 A3029 RMK AO2
Loading
Personal Weather Stations






























Interactive Weather Map New forecast layout! Learn more

10-Day Weather Forecast

Advertisements
Track Severe Weather on mobile